createdAt,value
2023-03-06T00:00:53.044Z,12.80
2023-03-06T00:03:26.219Z,12.63
2023-03-06T00:05:57.382Z,11.67
2023-03-06T00:08:27.631Z,10.90
2023-03-06T00:10:57.552Z,10.17
2023-03-06T00:13:30.180Z,10.00
2023-03-06T00:16:01.060Z,9.77
2023-03-06T00:18:31.330Z,10.87
2023-03-06T00:21:00.240Z,10.07
2023-03-06T00:23:29.020Z,9.80
2023-03-06T00:25:57.800Z,9.83
2023-03-06T00:28:27.243Z,8.77
2023-03-06T00:30:56.036Z,9.77
2023-03-06T00:33:24.948Z,9.50
2023-03-06T00:35:57.084Z,9.37
2023-03-06T00:38:28.593Z,8.77
2023-03-06T00:40:58.467Z,9.87
2023-03-06T00:43:27.278Z,10.57
2023-03-06T00:45:56.132Z,10.57
2023-03-06T00:48:24.972Z,10.43
2023-03-06T00:50:54.151Z,11.23
2023-03-06T00:53:24.811Z,11.30
2023-03-06T00:55:53.704Z,9.67
2023-03-06T00:58:22.520Z,10.20
2023-03-06T01:00:51.368Z,10.17
2023-03-06T01:03:20.172Z,11.30
2023-03-06T01:05:49.057Z,11.10
2023-03-06T01:08:17.788Z,11.30
2023-03-06T01:10:48.027Z,12.13
2023-03-06T01:13:18.333Z,12.40
2023-03-06T01:15:47.102Z,15.00
2023-03-06T01:18:16.463Z,16.90
2023-03-06T01:20:45.286Z,16.73
2023-03-06T01:23:14.082Z,15.97
2023-03-06T01:25:42.926Z,14.40
2023-03-06T01:28:13.137Z,13.50
2023-03-06T01:30:42.177Z,13.03
2023-03-06T01:33:11.095Z,13.57
2023-03-06T01:35:40.000Z,13.37
2023-03-06T01:38:08.822Z,14.00
2023-03-06T01:40:38.889Z,13.67
2023-03-06T01:43:25.792Z,14.57
2023-03-06T01:46:33.360Z,13.57
2023-03-06T01:49:05.601Z,12.73
2023-03-06T01:51:39.550Z,15.17
2023-03-06T01:54:12.996Z,13.43
2023-03-06T01:56:45.520Z,13.87
2023-03-06T01:59:16.789Z,12.97
2023-03-06T02:01:46.346Z,14.00
2023-03-06T02:04:17.221Z,14.67
2023-03-06T02:06:46.116Z,12.90
2023-03-06T02:09:16.520Z,12.67
2023-03-06T02:11:46.458Z,12.63
2023-03-06T02:14:18.387Z,15.23
2023-03-06T02:16:47.410Z,14.23
2023-03-06T02:19:27.581Z,14.27
2023-03-06T02:21:56.929Z,15.30
2023-03-06T02:24:35.701Z,14.57
2023-03-06T02:27:08.246Z,13.87
2023-03-06T02:29:37.391Z,13.30
2023-03-06T02:32:06.884Z,15.13
2023-03-06T02:34:59.855Z,14.77
2023-03-06T02:37:30.079Z,14.50
2023-03-06T02:40:09.026Z,14.73
2023-03-06T02:42:39.318Z,15.27
2023-03-06T02:45:11.820Z,14.63
2023-03-06T02:47:40.577Z,14.03
2023-03-06T02:50:10.755Z,13.47
2023-03-06T02:52:39.525Z,13.70
2023-03-06T02:55:09.506Z,14.13
2023-03-06T02:57:39.792Z,14.73
2023-03-06T03:00:10.427Z,13.40
2023-03-06T03:02:39.596Z,14.47
2023-03-06T03:05:09.389Z,13.43
2023-03-06T03:07:43.860Z,13.77
2023-03-06T03:10:13.849Z,14.20
2023-03-06T03:12:44.917Z,14.07
2023-03-06T03:15:15.118Z,14.37
2023-03-06T03:17:44.036Z,15.83
2023-03-06T03:20:15.940Z,16.40
2023-03-06T03:22:48.157Z,16.70
2023-03-06T03:25:17.739Z,16.00
2023-03-06T03:27:48.646Z,15.17
2023-03-06T03:30:17.957Z,14.77
2023-03-06T03:32:47.199Z,13.47
2023-03-06T03:35:16.309Z,14.10
2023-03-06T03:37:45.261Z,12.23
2023-03-06T03:40:14.821Z,12.70
2023-03-06T03:42:43.654Z,12.23
2023-03-06T03:45:14.594Z,12.70
2023-03-06T03:47:43.949Z,12.30
2023-03-06T03:50:14.413Z,12.93
2023-03-06T03:52:43.808Z,12.13
2023-03-06T03:55:13.937Z,12.43
2023-03-06T03:57:44.268Z,12.10
2023-03-06T04:00:16.823Z,12.67
2023-03-06T04:02:56.161Z,12.67
2023-03-06T04:05:33.410Z,12.60
2023-03-06T04:08:04.363Z,13.23
2023-03-06T04:10:36.516Z,14.00
2023-03-06T04:13:08.162Z,12.73
2023-03-06T04:15:41.337Z,13.87
2023-03-06T04:18:10.282Z,12.70
2023-03-06T04:20:39.133Z,12.77
2023-03-06T04:23:08.098Z,13.23
2023-03-06T04:25:36.937Z,13.03
2023-03-06T04:28:09.292Z,13.77
2023-03-06T04:30:38.236Z,13.13
2023-03-06T04:33:09.142Z,13.83
2023-03-06T04:35:38.803Z,13.43
2023-03-06T04:38:13.484Z,13.40
2023-03-06T04:40:44.832Z,13.50
2023-03-06T04:43:14.011Z,12.60
2023-03-06T04:45:43.014Z,13.90
2023-03-06T04:48:15.391Z,12.77
2023-03-06T04:50:44.261Z,13.23
2023-03-06T04:53:14.616Z,13.80
2023-03-06T04:55:43.435Z,13.43
2023-03-06T04:58:15.109Z,13.50
2023-03-06T05:00:43.979Z,13.73
2023-03-06T05:03:14.646Z,13.03
2023-03-06T05:05:43.805Z,13.77
2023-03-06T05:08:15.322Z,14.13
2023-03-06T05:10:44.551Z,12.73
2023-03-06T05:13:13.592Z,13.67
2023-03-06T05:15:42.903Z,14.50
2023-03-06T05:18:13.188Z,12.33
2023-03-06T05:20:42.080Z,12.53
2023-03-06T05:23:10.914Z,11.87
2023-03-06T05:25:40.560Z,12.60
2023-03-06T05:28:09.775Z,12.57
2023-03-06T05:30:39.654Z,12.00
2023-03-06T05:33:08.433Z,11.50
2023-03-06T05:35:38.581Z,12.23
2023-03-06T05:38:07.376Z,11.93
2023-03-06T05:40:36.305Z,11.67
2023-03-06T05:43:05.187Z,12.87
2023-03-06T05:45:33.929Z,15.73
2023-03-06T05:48:02.847Z,16.30
2023-03-06T05:50:31.726Z,15.17
2023-03-06T05:53:01.954Z,14.07
2023-03-06T05:55:31.308Z,14.53
2023-03-06T05:58:00.145Z,13.20
2023-03-06T06:00:29.195Z,12.80
2023-03-06T06:03:00.895Z,12.57
2023-03-06T06:05:29.652Z,12.33
2023-03-06T06:07:58.447Z,12.00
2023-03-06T06:10:28.561Z,12.13
2023-03-06T06:12:57.352Z,11.63
2023-03-06T06:15:28.860Z,10.83
2023-03-06T06:17:58.036Z,10.57
2023-03-06T06:20:27.514Z,11.10
2023-03-06T06:22:56.345Z,10.13
2023-03-06T06:25:25.061Z,11.00
2023-03-06T06:27:57.878Z,11.13
2023-03-06T06:30:26.658Z,11.40
2023-03-06T06:32:55.466Z,11.43
2023-03-06T06:35:24.509Z,12.23
2023-03-06T06:37:53.365Z,13.77
2023-03-06T06:40:24.326Z,15.00
2023-03-06T06:42:54.308Z,15.50
2023-03-06T06:45:24.411Z,12.57
2023-03-06T06:47:53.327Z,12.50
2023-03-06T06:50:22.177Z,12.90
2023-03-06T06:52:50.956Z,12.93
2023-03-06T06:55:19.837Z,12.53
2023-03-06T06:57:48.639Z,15.13
2023-03-06T07:00:18.365Z,12.53
2023-03-06T07:02:49.342Z,13.03
2023-03-06T07:05:20.999Z,16.07
2023-03-06T07:07:51.970Z,13.50
2023-03-06T07:10:21.279Z,9.13
2023-03-06T07:12:50.106Z,9.40
2023-03-06T07:15:20.078Z,10.27
2023-03-06T07:17:50.601Z,10.13
2023-03-06T07:20:20.449Z,9.57
2023-03-06T07:22:51.654Z,10.53
2023-03-06T07:25:21.480Z,10.23
2023-03-06T07:27:54.271Z,11.43
2023-03-06T07:30:24.316Z,11.03
2023-03-06T07:32:59.869Z,11.50
2023-03-06T07:35:28.801Z,10.73
2023-03-06T07:37:57.669Z,12.13
2023-03-06T07:40:27.090Z,12.23
2023-03-06T07:43:09.140Z,11.30
2023-03-06T07:45:46.991Z,10.97
2023-03-06T07:48:17.240Z,10.67
2023-03-06T07:50:46.081Z,10.40
2023-03-06T07:53:14.854Z,10.10
2023-03-06T07:55:43.623Z,7.70
2023-03-06T07:58:12.397Z,7.83
2023-03-06T08:00:41.209Z,6.87
2023-03-06T08:03:11.419Z,6.03
2023-03-06T08:05:41.621Z,5.97
2023-03-06T08:08:10.461Z,5.50
2023-03-06T08:10:39.264Z,5.50
2023-03-06T08:13:08.022Z,4.80
2023-03-06T08:15:36.810Z,4.77
2023-03-06T08:18:05.637Z,5.40
2023-03-06T08:20:34.449Z,6.00
2023-03-06T08:23:04.550Z,7.00
2023-03-06T08:25:33.268Z,8.10
2023-03-06T08:28:02.115Z,10.63
2023-03-06T08:30:31.523Z,12.23
2023-03-06T08:33:01.378Z,13.97
2023-03-06T08:35:30.208Z,15.10
2023-03-06T08:37:58.973Z,14.40
2023-03-06T08:40:30.492Z,14.47
2023-03-06T08:42:59.297Z,13.57
2023-03-06T08:45:28.041Z,10.60
2023-03-06T08:47:56.961Z,8.77
2023-03-06T08:50:25.728Z,11.07
2023-03-06T08:52:54.561Z,10.87
2023-03-06T08:55:23.287Z,10.50
2023-03-06T08:57:53.374Z,11.00
2023-03-06T09:00:22.418Z,11.87
2023-03-06T09:02:51.359Z,12.00
2023-03-06T09:05:21.679Z,10.10
2023-03-06T09:07:50.589Z,10.93
2023-03-06T09:10:21.801Z,9.60
2023-03-06T09:12:53.172Z,9.67
2023-03-06T09:15:25.372Z,10.07
2023-03-06T09:17:55.234Z,9.67
2023-03-06T09:20:24.234Z,10.77
2023-03-06T09:22:52.973Z,9.30
2023-03-06T09:25:23.313Z,8.43
2023-03-06T09:28:08.624Z,8.17
2023-03-06T09:30:42.029Z,8.53
2023-03-06T09:33:11.116Z,8.27
2023-03-06T09:35:46.426Z,7.63
2023-03-06T09:38:15.206Z,7.37
2023-03-06T09:41:00.337Z,7.80
2023-03-06T09:43:32.212Z,7.57
2023-03-06T09:46:07.317Z,7.43
2023-03-06T09:48:45.049Z,8.20
2023-03-06T09:51:18.069Z,9.90
2023-03-06T09:54:05.079Z,10.20
2023-03-06T09:56:36.884Z,10.13
2023-03-06T09:59:13.176Z,7.93
2023-03-06T10:01:47.127Z,8.20
2023-03-06T10:04:37.304Z,9.13
2023-03-06T10:07:13.034Z,8.80
2023-03-06T10:09:47.878Z,7.57
2023-03-06T10:12:25.923Z,7.03
2023-03-06T10:15:03.013Z,6.23
2023-03-06T10:17:37.723Z,6.80
2023-03-06T10:20:24.581Z,6.57
2023-03-06T10:23:11.818Z,7.20
2023-03-06T10:25:47.561Z,6.80
2023-03-06T10:28:18.475Z,7.17
2023-03-06T10:30:53.802Z,7.23
2023-03-06T10:33:38.946Z,7.17
2023-03-06T10:36:09.793Z,8.03
2023-03-06T10:38:38.913Z,9.17
2023-03-06T10:41:09.828Z,8.40
2023-03-06T10:43:40.758Z,7.57
2023-03-06T10:46:11.532Z,8.87
2023-03-06T10:48:43.225Z,9.70
2023-03-06T10:51:19.372Z,8.87
2023-03-06T10:53:53.897Z,12.50
2023-03-06T10:56:31.605Z,12.17
2023-03-06T10:59:13.327Z,10.80
2023-03-06T11:01:43.692Z,9.70
2023-03-06T11:04:28.237Z,10.43
2023-03-06T11:07:15.129Z,10.17
2023-03-06T11:09:47.662Z,10.87
2023-03-06T11:12:23.292Z,9.63
2023-03-06T11:15:11.076Z,10.33
2023-03-06T11:17:51.044Z,9.93
2023-03-06T11:20:23.704Z,9.80
2023-03-06T11:22:56.154Z,10.07
2023-03-06T11:25:31.030Z,9.77
2023-03-06T11:28:04.614Z,10.33
2023-03-06T11:30:40.375Z,9.87
2023-03-06T11:33:18.553Z,9.43
2023-03-06T11:35:55.414Z,10.43
2023-03-06T11:38:33.873Z,10.27
2023-03-06T11:41:07.172Z,9.87
2023-03-06T11:43:46.609Z,9.83
2023-03-06T11:46:22.791Z,10.37
2023-03-06T11:48:59.342Z,10.73
2023-03-06T11:51:34.335Z,10.93
2023-03-06T11:54:04.237Z,11.10
2023-03-06T11:56:37.535Z,10.33
2023-03-06T11:59:41.969Z,10.80
2023-03-06T12:02:39.279Z,10.40
2023-03-06T12:05:30.068Z,10.50
2023-03-06T12:08:09.587Z,10.50
2023-03-06T12:10:51.491Z,9.57
2023-03-06T12:13:34.849Z,10.60
2023-03-06T12:16:22.990Z,9.07
2023-03-06T12:19:03.414Z,9.03
2023-03-06T12:21:39.789Z,10.00
2023-03-06T12:27:23.925Z,9.77
2023-03-06T12:30:03.876Z,9.40
2023-03-06T12:32:42.092Z,9.43
2023-03-06T12:35:30.720Z,11.30
2023-03-06T12:38:11.665Z,10.77
2023-03-06T12:41:00.648Z,10.50
2023-03-06T12:44:15.449Z,11.30
2023-03-06T12:46:47.839Z,12.20
2023-03-06T12:49:31.953Z,11.80
2023-03-06T12:52:03.296Z,11.37
2023-03-06T12:54:36.184Z,11.93
2023-03-06T12:57:08.388Z,12.47
2023-03-06T12:59:48.005Z,11.87
2023-03-06T13:02:45.216Z,12.57
2023-03-06T13:05:37.587Z,12.17
2023-03-06T13:08:29.710Z,13.00
2023-03-06T13:11:23.547Z,12.47
2023-03-06T13:13:52.630Z,12.23
2023-03-06T13:16:30.227Z,13.93
2023-03-06T13:19:11.392Z,12.73
2023-03-06T13:22:04.345Z,14.03
2023-03-06T13:24:34.808Z,11.40
2023-03-06T13:27:06.988Z,10.90
2023-03-06T13:30:07.422Z,10.60
2023-03-06T13:32:38.112Z,9.70
2023-03-06T13:35:48.688Z,9.10
2023-03-06T13:38:59.008Z,8.00
2023-03-06T13:41:35.298Z,8.77
2023-03-06T13:44:30.727Z,8.57
2023-03-06T13:47:02.240Z,8.50
2023-03-06T13:49:33.526Z,8.80
2023-03-06T13:52:20.677Z,8.73
2023-03-06T13:54:59.138Z,9.20
2023-03-06T13:57:54.564Z,8.90
2023-03-06T14:00:50.378Z,7.83
2023-03-06T14:03:46.314Z,8.87
2023-03-06T14:07:05.567Z,8.37
2023-03-06T14:09:42.337Z,8.33
2023-03-06T14:12:19.936Z,8.53
2023-03-06T14:14:53.906Z,8.90
2023-03-06T14:17:27.978Z,8.63
2023-03-06T14:19:59.010Z,7.97
2023-03-06T14:22:27.832Z,13.90
2023-03-06T14:25:03.011Z,7.27
2023-03-06T14:27:45.242Z,7.27
2023-03-06T14:30:16.887Z,7.10
2023-03-06T14:32:46.451Z,7.77
2023-03-06T14:35:27.354Z,7.53
2023-03-06T14:37:59.845Z,7.57
2023-03-06T14:40:34.546Z,6.77
2023-03-06T14:43:21.580Z,7.10
2023-03-06T14:45:52.137Z,7.37
2023-03-06T14:48:21.670Z,6.57
2023-03-06T14:50:56.051Z,6.63
2023-03-06T14:53:29.093Z,6.40
2023-03-06T14:56:02.112Z,7.40
2023-03-06T14:58:37.849Z,6.43
2023-03-06T15:01:09.543Z,6.50
2023-03-06T15:03:45.654Z,7.10
2023-03-06T15:06:20.533Z,6.70
2023-03-06T15:08:54.665Z,7.00
2023-03-06T15:11:24.907Z,6.13
2023-03-06T15:14:04.154Z,6.03
2023-03-06T15:16:33.335Z,6.60
2023-03-06T15:19:02.937Z,6.20
2023-03-06T15:21:36.430Z,6.00
2023-03-06T15:24:32.369Z,6.33
2023-03-06T15:27:05.903Z,6.27
2023-03-06T15:29:35.197Z,6.33
2023-03-06T15:32:32.405Z,6.53
2023-03-06T15:35:38.308Z,6.90
2023-03-06T15:38:24.941Z,8.07
2023-03-06T15:40:57.963Z,7.27
2023-03-06T15:43:29.305Z,7.23
2023-03-06T15:46:00.911Z,7.67
2023-03-06T15:48:30.075Z,7.77
2023-03-06T15:50:58.912Z,7.77
2023-03-06T15:53:28.457Z,7.63
2023-03-06T15:55:58.997Z,8.40
2023-03-06T15:58:34.600Z,8.87
2023-03-06T16:01:03.797Z,7.80
2023-03-06T16:03:32.831Z,8.07
2023-03-06T16:06:01.578Z,8.53
2023-03-06T16:08:30.502Z,10.20
2023-03-06T16:10:59.637Z,8.33
2023-03-06T16:13:30.792Z,7.60
2023-03-06T16:16:00.928Z,9.77
2023-03-06T16:18:31.535Z,8.83
2023-03-06T16:21:01.487Z,8.90
2023-03-06T16:23:30.453Z,9.47
2023-03-06T16:25:59.234Z,9.47
2023-03-06T16:28:29.640Z,8.97
2023-03-06T16:30:58.635Z,9.40
2023-03-06T16:33:27.417Z,8.30
2023-03-06T16:35:56.270Z,8.53
2023-03-06T16:38:25.110Z,8.33
2023-03-06T16:40:53.896Z,8.30
2023-03-06T16:43:22.758Z,7.90
2023-03-06T16:45:53.328Z,8.97
2023-03-06T16:48:22.066Z,10.40
2023-03-06T16:50:51.201Z,11.20
2023-03-06T16:53:20.112Z,11.30
2023-03-06T16:55:49.327Z,11.43
2023-03-06T16:58:18.355Z,13.23
2023-03-06T17:00:47.112Z,10.63
2023-03-06T17:03:18.625Z,10.23
2023-03-06T17:05:47.404Z,10.83
2023-03-06T17:08:16.213Z,11.47
2023-03-06T17:10:45.052Z,12.40
2023-03-06T17:13:13.810Z,12.47
2023-03-06T17:15:42.649Z,12.47
2023-03-06T17:18:11.813Z,12.87
2023-03-06T17:20:49.173Z,12.13
2023-03-06T17:23:18.230Z,11.60
2023-03-06T17:25:48.527Z,9.90
2023-03-06T17:28:17.469Z,9.70
2023-03-06T17:30:46.683Z,9.93
2023-03-06T17:33:15.978Z,10.10
2023-03-06T17:35:46.589Z,10.13
2023-03-06T17:38:15.585Z,10.60
2023-03-06T17:40:44.605Z,11.10
2023-03-06T17:43:13.443Z,12.23
2023-03-06T17:45:42.345Z,12.40
2023-03-06T17:48:11.105Z,14.70
2023-03-06T17:50:40.292Z,15.03
2023-03-06T17:53:10.473Z,16.03
2023-03-06T17:55:40.685Z,17.27
2023-03-06T17:58:12.276Z,17.97
2023-03-06T18:00:41.742Z,18.37
2023-03-06T18:03:11.017Z,18.77
2023-03-06T18:05:40.180Z,20.47
2023-03-06T18:08:11.753Z,20.03
2023-03-06T18:10:41.420Z,20.20
2023-03-06T18:13:11.014Z,18.97
2023-03-06T18:15:40.782Z,17.77
2023-03-06T18:18:10.333Z,18.90
2023-03-06T18:20:42.433Z,24.93
2023-03-06T18:23:13.451Z,28.50
2023-03-06T18:25:42.481Z,26.30
2023-03-06T18:28:12.134Z,28.80
2023-03-06T18:30:42.560Z,26.53
2023-03-06T18:33:11.858Z,23.87
2023-03-06T18:35:44.051Z,28.07
2023-03-06T18:38:17.104Z,30.70
2023-03-06T18:40:46.298Z,30.17
2023-03-06T18:43:15.232Z,27.30
2023-03-06T18:45:44.323Z,24.90
2023-03-06T18:48:13.282Z,19.30
2023-03-06T18:50:42.184Z,17.40
2023-03-06T18:53:11.348Z,20.80
2023-03-06T18:55:48.535Z,21.27
2023-03-06T18:58:17.492Z,20.33
2023-03-06T19:00:46.648Z,24.47
2023-03-06T19:03:15.793Z,24.13
2023-03-06T19:05:47.309Z,20.57
2023-03-06T19:08:17.826Z,25.70
2023-03-06T19:10:49.778Z,26.50
2023-03-06T19:13:18.613Z,29.43
2023-03-06T19:15:50.095Z,25.87
2023-03-06T19:18:19.437Z,27.87
2023-03-06T19:20:48.233Z,28.10
2023-03-06T19:23:17.315Z,25.73
2023-03-06T19:25:57.078Z,23.40
2023-03-06T19:28:26.203Z,22.43
2023-03-06T19:30:55.033Z,25.23
2023-03-06T19:33:24.377Z,30.47
2023-03-06T19:35:53.318Z,29.93
2023-03-06T19:38:22.549Z,36.33
2023-03-06T19:40:53.054Z,36.80
2023-03-06T19:43:22.849Z,32.33
2023-03-06T19:45:51.925Z,34.83
2023-03-06T19:48:22.727Z,33.63
2023-03-06T19:50:51.811Z,33.17
2023-03-06T19:53:21.757Z,35.33
2023-03-06T19:55:52.448Z,33.87
2023-03-06T19:58:21.703Z,33.93
2023-03-06T20:00:50.645Z,33.07
2023-03-06T20:03:19.488Z,32.90
2023-03-06T20:05:48.917Z,31.73
2023-03-06T20:08:17.774Z,31.40
2023-03-06T20:10:46.662Z,33.23
2023-03-06T20:13:17.219Z,34.00
2023-03-06T20:15:46.726Z,33.50
2023-03-06T20:18:15.650Z,32.87
2023-03-06T20:20:44.491Z,34.40
2023-03-06T20:23:15.661Z,33.87
2023-03-06T20:25:45.682Z,36.53
2023-03-06T20:28:14.576Z,38.13
2023-03-06T20:30:45.192Z,38.70
2023-03-06T20:33:15.411Z,37.50
2023-03-06T20:35:44.903Z,39.90
2023-03-06T20:38:13.812Z,39.40
2023-03-06T20:40:44.460Z,39.20
2023-03-06T20:43:13.497Z,37.07
2023-03-06T20:45:42.390Z,35.80
2023-03-06T20:48:12.981Z,37.00
2023-03-06T20:50:41.781Z,32.87
2023-03-06T20:53:10.709Z,35.40
2023-03-06T20:55:39.624Z,37.47
2023-03-06T20:58:08.417Z,35.93
2023-03-06T21:00:37.262Z,33.27
2023-03-06T21:03:06.091Z,33.83
2023-03-06T21:05:36.618Z,36.67
2023-03-06T21:08:05.585Z,36.73
2023-03-06T21:10:34.613Z,37.33
2023-03-06T21:13:03.953Z,45.80
2023-03-06T21:15:33.222Z,69.93
2023-03-06T21:18:02.012Z,64.47
2023-03-06T21:20:30.905Z,64.13
2023-03-06T21:23:02.645Z,40.37
2023-03-06T21:25:31.638Z,34.73
2023-03-06T21:28:00.669Z,32.73
2023-03-06T21:30:30.401Z,34.10
2023-03-06T21:32:59.168Z,48.43
2023-03-06T21:35:28.431Z,39.00
2023-03-06T21:37:57.411Z,35.20
2023-03-06T21:40:28.245Z,37.43
2023-03-06T21:42:57.583Z,39.37
2023-03-06T21:45:30.195Z,39.83
2023-03-06T21:48:00.277Z,38.23
2023-03-06T21:50:29.424Z,37.93
2023-03-06T21:52:58.657Z,38.77
2023-03-06T21:55:29.208Z,34.90
2023-03-06T21:57:58.218Z,38.77
2023-03-06T22:00:27.150Z,38.87
2023-03-06T22:02:56.086Z,43.23
2023-03-06T22:05:26.223Z,37.63
2023-03-06T22:07:55.056Z,41.23
2023-03-06T22:10:23.808Z,38.03
2023-03-06T22:12:54.263Z,34.00
2023-03-06T22:15:23.348Z,37.50
2023-03-06T22:17:52.607Z,34.53
2023-03-06T22:20:21.466Z,32.13
2023-03-06T22:22:50.284Z,33.17
2023-03-06T22:25:19.482Z,27.60
2023-03-06T22:27:48.482Z,26.97
2023-03-06T22:30:19.554Z,31.40
2023-03-06T22:32:48.542Z,25.47
2023-03-06T22:35:17.448Z,25.97
2023-03-06T22:37:46.316Z,23.97
2023-03-06T22:40:15.344Z,25.63
2023-03-06T22:42:44.205Z,24.40
2023-03-06T22:45:13.630Z,26.67
2023-03-06T22:47:44.393Z,26.03
2023-03-06T22:50:13.639Z,24.93
2023-03-06T22:52:42.461Z,27.03
2023-03-06T22:55:11.893Z,27.43
2023-03-06T22:57:40.757Z,24.23
2023-03-06T23:00:11.273Z,24.87
2023-03-06T23:02:40.126Z,26.57
2023-03-06T23:05:11.353Z,24.67
2023-03-06T23:07:40.265Z,27.13
2023-03-06T23:10:10.529Z,23.90
2023-03-06T23:12:57.780Z,25.13
2023-03-06T23:15:45.144Z,24.27
2023-03-06T23:18:33.863Z,27.00
2023-03-06T23:21:24.445Z,25.13
2023-03-06T23:24:12.157Z,28.73
2023-03-06T23:26:41.046Z,26.47
2023-03-06T23:29:09.892Z,24.40
2023-03-06T23:31:38.768Z,25.27
2023-03-06T23:34:10.824Z,24.73
2023-03-06T23:36:41.798Z,24.60
2023-03-06T23:39:11.777Z,25.93
2023-03-06T23:41:41.045Z,22.97
2023-03-06T23:44:10.521Z,23.20
2023-03-06T23:46:39.859Z,23.73
2023-03-06T23:49:08.920Z,23.17
2023-03-06T23:51:38.106Z,24.33
2023-03-06T23:54:08.759Z,23.03
2023-03-06T23:56:37.960Z,23.40
2023-03-06T23:59:07.190Z,22.43
